sensor_id;sensor_type;location;lat;lon;timestamp;temperature;humidity
13174;DHT22;6652;48.802;9.190;2023-04-03T00:00:38;4.50;99.90
13174;DHT22;6652;48.802;9.190;2023-04-03T00:03:05;4.50;99.90
13174;DHT22;6652;48.802;9.190;2023-04-03T00:05:32;4.50;99.90
13174;DHT22;6652;48.802;9.190;2023-04-03T00:07:59;4.60;99.90
13174;DHT22;6652;48.802;9.190;2023-04-03T00:10:27;4.60;99.90
13174;DHT22;6652;48.802;9.190;2023-04-03T00:12:54;4.70;99.90
13174;DHT22;6652;48.802;9.190;2023-04-03T00:15:21;4.60;99.90
13174;DHT22;6652;48.802;9.190;2023-04-03T00:17:50;4.60;99.90
13174;DHT22;6652;48.802;9.190;2023-04-03T00:20:16;4.60;99.90
13174;DHT22;6652;48.802;9.190;2023-04-03T00:22:43;4.50;99.90
13174;DHT22;6652;48.802;9.190;2023-04-03T00:25:10;4.50;99.90
13174;DHT22;6652;48.802;9.190;2023-04-03T00:27:37;4.40;99.90
13174;DHT22;6652;48.802;9.190;2023-04-03T00:30:06;4.40;99.90
13174;DHT22;6652;48.802;9.190;2023-04-03T00:32:33;4.40;99.90
13174;DHT22;6652;48.802;9.190;2023-04-03T00:35:01;4.50;99.90
13174;DHT22;6652;48.802;9.190;2023-04-03T00:37:28;4.50;99.90
13174;DHT22;6652;48.802;9.190;2023-04-03T00:39:56;4.60;99.90
13174;DHT22;6652;48.802;9.190;2023-04-03T00:42:23;4.50;99.90
13174;DHT22;6652;48.802;9.190;2023-04-03T00:45:32;4.50;99.90
13174;DHT22;6652;48.802;9.190;2023-04-03T00:48:00;4.40;99.90
13174;DHT22;6652;48.802;9.190;2023-04-03T00:50:30;4.40;99.90
13174;DHT22;6652;48.802;9.190;2023-04-03T00:52:57;4.30;99.90
13174;DHT22;6652;48.802;9.190;2023-04-03T00:55:25;4.30;99.90
13174;DHT22;6652;48.802;9.190;2023-04-03T00:57:52;4.30;99.90
13174;DHT22;6652;48.802;9.190;2023-04-03T01:00:21;4.30;99.90
13174;DHT22;6652;48.802;9.190;2023-04-03T01:02:49;4.30;99.90
13174;DHT22;6652;48.802;9.190;2023-04-03T01:05:17;4.30;99.90
13174;DHT22;6652;48.802;9.190;2023-04-03T01:07:45;4.30;99.90
13174;DHT22;6652;48.802;9.190;2023-04-03T01:10:15;4.30;99.90
13174;DHT22;6652;48.802;9.190;2023-04-03T01:12:45;4.30;99.90
13174;DHT22;6652;48.802;9.190;2023-04-03T01:15:15;4.30;99.90
13174;DHT22;6652;48.802;9.190;2023-04-03T01:17:43;4.20;99.90
13174;DHT22;6652;48.802;9.190;2023-04-03T01:20:36;4.30;99.90
13174;DHT22;6652;48.802;9.190;2023-04-03T01:23:20;4.20;99.90
13174;DHT22;6652;48.802;9.190;2023-04-03T01:25:51;4.20;99.90
13174;DHT22;6652;48.802;9.190;2023-04-03T01:28:21;4.20;99.90
13174;DHT22;6652;48.802;9.190;2023-04-03T01:30:51;4.20;99.90
13174;DHT22;6652;48.802;9.190;2023-04-03T01:33:21;4.10;99.90
13174;DHT22;6652;48.802;9.190;2023-04-03T01:35:55;4.10;99.90
13174;DHT22;6652;48.802;9.190;2023-04-03T01:38:21;4.10;99.90
13174;DHT22;6652;48.802;9.190;2023-04-03T01:40:48;4.10;99.90
13174;DHT22;6652;48.802;9.190;2023-04-03T01:43:15;4.10;99.90
13174;DHT22;6652;48.802;9.190;2023-04-03T01:45:42;4.10;99.90
13174;DHT22;6652;48.802;9.190;2023-04-03T01:48:09;4.00;99.90
13174;DHT22;6652;48.802;9.190;2023-04-03T01:50:37;4.10;99.90
13174;DHT22;6652;48.802;9.190;2023-04-03T01:53:04;4.10;99.90
13174;DHT22;6652;48.802;9.190;2023-04-03T01:55:30;4.00;99.90
13174;DHT22;6652;48.802;9.190;2023-04-03T01:57:57;4.00;99.90
13174;DHT22;6652;48.802;9.190;2023-04-03T02:00:24;4.10;99.90
13174;DHT22;6652;48.802;9.190;2023-04-03T02:02:52;4.10;99.90
13174;DHT22;6652;48.802;9.190;2023-04-03T02:05:19;4.10;99.90
13174;DHT22;6652;48.802;9.190;2023-04-03T02:07:47;4.10;99.90
13174;DHT22;6652;48.802;9.190;2023-04-03T02:10:14;4.20;99.90
13174;DHT22;6652;48.802;9.190;2023-04-03T02:12:41;4.20;99.90
13174;DHT22;6652;48.802;9.190;2023-04-03T02:15:08;4.20;99.90
13174;DHT22;6652;48.802;9.190;2023-04-03T02:17:36;4.20;99.90
13174;DHT22;6652;48.802;9.190;2023-04-03T02:20:03;4.20;99.90
13174;DHT22;6652;48.802;9.190;2023-04-03T02:22:30;4.30;99.90
13174;DHT22;6652;48.802;9.190;2023-04-03T02:24:58;4.30;99.90
13174;DHT22;6652;48.802;9.190;2023-04-03T02:27:25;4.30;99.90
13174;DHT22;6652;48.802;9.190;2023-04-03T02:29:52;4.30;99.90
13174;DHT22;6652;48.802;9.190;2023-04-03T02:32:19;4.20;99.90
13174;DHT22;6652;48.802;9.190;2023-04-03T02:34:46;4.20;99.90
13174;DHT22;6652;48.802;9.190;2023-04-03T02:37:13;4.10;99.90
13174;DHT22;6652;48.802;9.190;2023-04-03T02:39:40;4.00;99.90
13174;DHT22;6652;48.802;9.190;2023-04-03T02:42:08;4.10;99.90
13174;DHT22;6652;48.802;9.190;2023-04-03T02:44:35;4.10;99.90
13174;DHT22;6652;48.802;9.190;2023-04-03T02:47:02;4.10;99.90
13174;DHT22;6652;48.802;9.190;2023-04-03T02:49:29;4.10;99.90
13174;DHT22;6652;48.802;9.190;2023-04-03T02:51:55;4.00;99.90
13174;DHT22;6652;48.802;9.190;2023-04-03T02:54:22;4.00;99.90
13174;DHT22;6652;48.802;9.190;2023-04-03T02:56:53;4.00;99.90
13174;DHT22;6652;48.802;9.190;2023-04-03T02:59:21;4.00;99.90
13174;DHT22;6652;48.802;9.190;2023-04-03T03:01:48;4.00;99.90
13174;DHT22;6652;48.802;9.190;2023-04-03T03:04:15;4.00;99.90
13174;DHT22;6652;48.802;9.190;2023-04-03T03:06:42;4.00;99.90
13174;DHT22;6652;48.802;9.190;2023-04-03T03:09:09;4.10;99.90
13174;DHT22;6652;48.802;9.190;2023-04-03T03:11:36;4.00;99.90
13174;DHT22;6652;48.802;9.190;2023-04-03T03:14:02;4.00;99.90
13174;DHT22;6652;48.802;9.190;2023-04-03T03:16:31;4.10;99.90
13174;DHT22;6652;48.802;9.190;2023-04-03T03:18:57;4.00;99.90
13174;DHT22;6652;48.802;9.190;2023-04-03T03:21:25;4.10;99.90
13174;DHT22;6652;48.802;9.190;2023-04-03T03:23:51;4.10;99.90
13174;DHT22;6652;48.802;9.190;2023-04-03T03:26:18;4.10;99.90
13174;DHT22;6652;48.802;9.190;2023-04-03T03:28:45;4.10;99.90
13174;DHT22;6652;48.802;9.190;2023-04-03T03:31:12;4.00;99.90
13174;DHT22;6652;48.802;9.190;2023-04-03T03:33:42;4.00;99.90
13174;DHT22;6652;48.802;9.190;2023-04-03T03:36:09;4.00;99.90
13174;DHT22;6652;48.802;9.190;2023-04-03T03:38:35;4.00;99.90
13174;DHT22;6652;48.802;9.190;2023-04-03T03:41:02;4.00;99.90
13174;DHT22;6652;48.802;9.190;2023-04-03T03:43:29;4.00;99.90
13174;DHT22;6652;48.802;9.190;2023-04-03T03:45:56;4.00;99.90
13174;DHT22;6652;48.802;9.190;2023-04-03T03:48:23;3.90;99.90
13174;DHT22;6652;48.802;9.190;2023-04-03T03:50:51;3.90;99.90
13174;DHT22;6652;48.802;9.190;2023-04-03T03:53:18;3.90;99.90
13174;DHT22;6652;48.802;9.190;2023-04-03T03:55:45;3.90;99.90
13174;DHT22;6652;48.802;9.190;2023-04-03T03:58:12;3.80;99.90
13174;DHT22;6652;48.802;9.190;2023-04-03T04:00:39;3.80;99.90
13174;DHT22;6652;48.802;9.190;2023-04-03T04:03:06;3.80;99.90
13174;DHT22;6652;48.802;9.190;2023-04-03T04:05:33;3.90;99.90
13174;DHT22;6652;48.802;9.190;2023-04-03T04:08:01;3.90;99.90
13174;DHT22;6652;48.802;9.190;2023-04-03T04:10:28;3.80;99.90
13174;DHT22;6652;48.802;9.190;2023-04-03T04:12:55;3.90;99.90
13174;DHT22;6652;48.802;9.190;2023-04-03T04:15:22;3.80;99.90
13174;DHT22;6652;48.802;9.190;2023-04-03T04:17:50;3.90;99.90
13174;DHT22;6652;48.802;9.190;2023-04-03T04:20:18;3.90;99.90
13174;DHT22;6652;48.802;9.190;2023-04-03T04:22:45;3.90;99.90
13174;DHT22;6652;48.802;9.190;2023-04-03T04:25:13;3.90;99.90
13174;DHT22;6652;48.802;9.190;2023-04-03T04:27:40;3.90;99.90
13174;DHT22;6652;48.802;9.190;2023-04-03T04:30:08;3.90;99.90
13174;DHT22;6652;48.802;9.190;2023-04-03T04:32:36;3.90;99.90
13174;DHT22;6652;48.802;9.190;2023-04-03T04:35:04;3.90;99.90
13174;DHT22;6652;48.802;9.190;2023-04-03T04:37:31;3.90;99.90
13174;DHT22;6652;48.802;9.190;2023-04-03T04:39:57;3.90;99.90
13174;DHT22;6652;48.802;9.190;2023-04-03T04:42:26;3.90;99.90
13174;DHT22;6652;48.802;9.190;2023-04-03T04:44:52;3.90;99.90
13174;DHT22;6652;48.802;9.190;2023-04-03T04:47:19;3.90;99.90
13174;DHT22;6652;48.802;9.190;2023-04-03T04:49:48;4.00;99.90
13174;DHT22;6652;48.802;9.190;2023-04-03T04:52:14;3.90;99.90
13174;DHT22;6652;48.802;9.190;2023-04-03T04:54:41;4.00;99.90
13174;DHT22;6652;48.802;9.190;2023-04-03T04:57:08;4.00;99.90
13174;DHT22;6652;48.802;9.190;2023-04-03T04:59:37;4.00;99.90
13174;DHT22;6652;48.802;9.190;2023-04-03T05:02:04;4.00;99.90
13174;DHT22;6652;48.802;9.190;2023-04-03T05:04:31;4.10;99.90
13174;DHT22;6652;48.802;9.190;2023-04-03T05:06:58;4.00;99.90
13174;DHT22;6652;48.802;9.190;2023-04-03T05:09:26;4.10;99.90
13174;DHT22;6652;48.802;9.190;2023-04-03T05:11:52;4.10;99.90
13174;DHT22;6652;48.802;9.190;2023-04-03T05:14:19;4.10;99.90
13174;DHT22;6652;48.802;9.190;2023-04-03T05:16:47;4.10;99.90
13174;DHT22;6652;48.802;9.190;2023-04-03T05:19:18;4.10;99.90
13174;DHT22;6652;48.802;9.190;2023-04-03T05:21:45;4.20;99.90
13174;DHT22;6652;48.802;9.190;2023-04-03T05:24:11;5.00;99.90
13174;DHT22;6652;48.802;9.190;2023-04-03T05:26:38;4.20;99.90
13174;DHT22;6652;48.802;9.190;2023-04-03T05:29:05;4.20;99.90
13174;DHT22;6652;48.802;9.190;2023-04-03T05:31:32;4.20;99.90
13174;DHT22;6652;48.802;9.190;2023-04-03T05:34:01;4.20;99.90
13174;DHT22;6652;48.802;9.190;2023-04-03T05:36:28;4.70;99.90
13174;DHT22;6652;48.802;9.190;2023-04-03T05:38:55;4.20;99.90
13174;DHT22;6652;48.802;9.190;2023-04-03T05:41:23;4.20;99.90
13174;DHT22;6652;48.802;9.190;2023-04-03T05:43:50;4.30;99.90
13174;DHT22;6652;48.802;9.190;2023-04-03T05:46:18;4.30;99.90
13174;DHT22;6652;48.802;9.190;2023-04-03T05:48:45;4.40;99.90
13174;DHT22;6652;48.802;9.190;2023-04-03T05:51:16;4.40;99.90
13174;DHT22;6652;48.802;9.190;2023-04-03T05:53:44;4.40;99.90
13174;DHT22;6652;48.802;9.190;2023-04-03T05:56:13;4.40;99.90
13174;DHT22;6652;48.802;9.190;2023-04-03T05:58:40;4.40;99.90
13174;DHT22;6652;48.802;9.190;2023-04-03T06:01:07;4.40;99.90
13174;DHT22;6652;48.802;9.190;2023-04-03T06:03:34;4.40;99.90
13174;DHT22;6652;48.802;9.190;2023-04-03T06:06:03;4.50;99.90
13174;DHT22;6652;48.802;9.190;2023-04-03T06:08:31;4.50;99.90
13174;DHT22;6652;48.802;9.190;2023-04-03T06:10:59;4.50;99.90
13174;DHT22;6652;48.802;9.190;2023-04-03T06:13:27;4.60;99.90
13174;DHT22;6652;48.802;9.190;2023-04-03T06:15:54;4.70;99.90
13174;DHT22;6652;48.802;9.190;2023-04-03T06:18:21;4.60;99.90
13174;DHT22;6652;48.802;9.190;2023-04-03T06:20:48;4.70;99.90
13174;DHT22;6652;48.802;9.190;2023-04-03T06:23:15;4.70;99.90
13174;DHT22;6652;48.802;9.190;2023-04-03T06:25:44;4.80;99.90
13174;DHT22;6652;48.802;9.190;2023-04-03T06:28:11;4.70;99.90
13174;DHT22;6652;48.802;9.190;2023-04-03T06:30:38;4.70;99.90
13174;DHT22;6652;48.802;9.190;2023-04-03T06:33:05;4.70;99.90
13174;DHT22;6652;48.802;9.190;2023-04-03T06:35:32;5.30;99.90
13174;DHT22;6652;48.802;9.190;2023-04-03T06:38:00;4.60;99.90
13174;DHT22;6652;48.802;9.190;2023-04-03T06:40:27;4.70;99.90
13174;DHT22;6652;48.802;9.190;2023-04-03T06:42:55;4.60;99.90
13174;DHT22;6652;48.802;9.190;2023-04-03T06:45:22;4.70;99.90
13174;DHT22;6652;48.802;9.190;2023-04-03T06:47:51;4.70;99.90
13174;DHT22;6652;48.802;9.190;2023-04-03T06:50:17;4.70;99.90
13174;DHT22;6652;48.802;9.190;2023-04-03T06:52:45;4.70;99.90
13174;DHT22;6652;48.802;9.190;2023-04-03T06:55:12;4.70;99.90
13174;DHT22;6652;48.802;9.190;2023-04-03T06:57:38;4.60;99.90
13174;DHT22;6652;48.802;9.190;2023-04-03T07:00:08;4.70;99.90
13174;DHT22;6652;48.802;9.190;2023-04-03T07:02:36;4.90;99.90
13174;DHT22;6652;48.802;9.190;2023-04-03T07:05:03;5.10;99.90
13174;DHT22;6652;48.802;9.190;2023-04-03T07:07:31;5.10;99.90
13174;DHT22;6652;48.802;9.190;2023-04-03T07:09:59;5.10;99.90
13174;DHT22;6652;48.802;9.190;2023-04-03T07:12:28;5.10;99.90
13174;DHT22;6652;48.802;9.190;2023-04-03T07:14:55;5.00;99.90
13174;DHT22;6652;48.802;9.190;2023-04-03T07:17:23;5.00;99.90
13174;DHT22;6652;48.802;9.190;2023-04-03T07:19:50;5.20;99.90
13174;DHT22;6652;48.802;9.190;2023-04-03T07:22:17;5.30;99.90
13174;DHT22;6652;48.802;9.190;2023-04-03T07:24:44;5.30;99.90
13174;DHT22;6652;48.802;9.190;2023-04-03T07:27:12;5.30;99.90
13174;DHT22;6652;48.802;9.190;2023-04-03T07:29:39;5.30;99.90
13174;DHT22;6652;48.802;9.190;2023-04-03T07:32:06;5.40;99.90
13174;DHT22;6652;48.802;9.190;2023-04-03T07:34:34;5.50;99.90
13174;DHT22;6652;48.802;9.190;2023-04-03T07:37:02;5.70;99.90
13174;DHT22;6652;48.802;9.190;2023-04-03T07:39:30;5.80;99.90
13174;DHT22;6652;48.802;9.190;2023-04-03T07:41:57;5.90;99.90
13174;DHT22;6652;48.802;9.190;2023-04-03T07:44:24;6.20;99.90
13174;DHT22;6652;48.802;9.190;2023-04-03T07:46:51;6.20;99.90
13174;DHT22;6652;48.802;9.190;2023-04-03T07:49:18;6.10;99.90
13174;DHT22;6652;48.802;9.190;2023-04-03T07:51:46;6.20;99.90
13174;DHT22;6652;48.802;9.190;2023-04-03T07:54:14;6.20;99.90
13174;DHT22;6652;48.802;9.190;2023-04-03T07:56:41;6.30;99.90
13174;DHT22;6652;48.802;9.190;2023-04-03T07:59:08;6.20;99.90
13174;DHT22;6652;48.802;9.190;2023-04-03T08:01:35;6.30;99.90
13174;DHT22;6652;48.802;9.190;2023-04-03T08:04:02;6.30;99.90
13174;DHT22;6652;48.802;9.190;2023-04-03T08:06:31;6.10;99.90
13174;DHT22;6652;48.802;9.190;2023-04-03T08:09:00;6.10;99.90
13174;DHT22;6652;48.802;9.190;2023-04-03T08:11:27;6.20;99.90
13174;DHT22;6652;48.802;9.190;2023-04-03T08:13:54;6.30;99.90
13174;DHT22;6652;48.802;9.190;2023-04-03T08:16:23;6.20;99.90
13174;DHT22;6652;48.802;9.190;2023-04-03T08:18:51;6.20;99.90
13174;DHT22;6652;48.802;9.190;2023-04-03T08:21:17;6.20;99.90
13174;DHT22;6652;48.802;9.190;2023-04-03T08:23:44;6.30;99.90
13174;DHT22;6652;48.802;9.190;2023-04-03T08:26:19;6.30;99.90
13174;DHT22;6652;48.802;9.190;2023-04-03T08:28:46;6.40;99.90
13174;DHT22;6652;48.802;9.190;2023-04-03T08:31:16;6.50;99.90
13174;DHT22;6652;48.802;9.190;2023-04-03T08:33:44;6.70;99.90
13174;DHT22;6652;48.802;9.190;2023-04-03T08:36:20;6.70;99.90
13174;DHT22;6652;48.802;9.190;2023-04-03T08:38:47;6.90;99.90
13174;DHT22;6652;48.802;9.190;2023-04-03T08:41:20;7.00;99.90
13174;DHT22;6652;48.802;9.190;2023-04-03T08:44:14;7.00;99.90
13174;DHT22;6652;48.802;9.190;2023-04-03T08:46:58;6.90;99.90
13174;DHT22;6652;48.802;9.190;2023-04-03T08:49:31;7.00;99.90
13174;DHT22;6652;48.802;9.190;2023-04-03T08:52:02;7.20;99.90
13174;DHT22;6652;48.802;9.190;2023-04-03T08:54:33;7.90;99.90
13174;DHT22;6652;48.802;9.190;2023-04-03T08:57:03;8.20;99.90
13174;DHT22;6652;48.802;9.190;2023-04-03T08:59:34;8.00;99.90
13174;DHT22;6652;48.802;9.190;2023-04-03T09:02:04;7.80;99.90
13174;DHT22;6652;48.802;9.190;2023-04-03T09:04:32;7.50;99.90
13174;DHT22;6652;48.802;9.190;2023-04-03T09:07:06;7.30;99.90
13174;DHT22;6652;48.802;9.190;2023-04-03T09:09:36;7.20;99.90
13174;DHT22;6652;48.802;9.190;2023-04-03T09:12:15;7.10;99.90
13174;DHT22;6652;48.802;9.190;2023-04-03T09:14:49;7.10;99.90
13174;DHT22;6652;48.802;9.190;2023-04-03T09:17:24;7.10;99.90
13174;DHT22;6652;48.802;9.190;2023-04-03T09:19:58;7.30;99.90
13174;DHT22;6652;48.802;9.190;2023-04-03T09:22:31;7.30;99.90
13174;DHT22;6652;48.802;9.190;2023-04-03T09:25:03;7.20;99.90
13174;DHT22;6652;48.802;9.190;2023-04-03T09:27:34;7.00;99.90
13174;DHT22;6652;48.802;9.190;2023-04-03T09:30:02;6.90;99.90
13174;DHT22;6652;48.802;9.190;2023-04-03T09:32:31;6.90;99.90
13174;DHT22;6652;48.802;9.190;2023-04-03T09:35:01;6.90;99.90
13174;DHT22;6652;48.802;9.190;2023-04-03T09:37:41;6.90;99.90
13174;DHT22;6652;48.802;9.190;2023-04-03T09:40:30;7.00;99.90
13174;DHT22;6652;48.802;9.190;2023-04-03T09:43:02;7.20;99.90
13174;DHT22;6652;48.802;9.190;2023-04-03T09:45:44;7.20;99.90
13174;DHT22;6652;48.802;9.190;2023-04-03T09:48:16;7.20;99.90
13174;DHT22;6652;48.802;9.190;2023-04-03T09:50:55;7.30;99.90
13174;DHT22;6652;48.802;9.190;2023-04-03T09:53:30;7.40;99.90
13174;DHT22;6652;48.802;9.190;2023-04-03T09:55:58;7.20;99.90
13174;DHT22;6652;48.802;9.190;2023-04-03T09:58:28;7.10;99.90
13174;DHT22;6652;48.802;9.190;2023-04-03T10:00:57;7.20;99.90
13174;DHT22;6652;48.802;9.190;2023-04-03T10:03:28;7.10;99.90
13174;DHT22;6652;48.802;9.190;2023-04-03T10:05:57;7.10;99.90
13174;DHT22;6652;48.802;9.190;2023-04-03T10:08:27;7.10;99.90
13174;DHT22;6652;48.802;9.190;2023-04-03T10:11:13;7.00;99.90
13174;DHT22;6652;48.802;9.190;2023-04-03T10:13:53;7.20;99.90
13174;DHT22;6652;48.802;9.190;2023-04-03T10:16:26;7.30;99.90
13174;DHT22;6652;48.802;9.190;2023-04-03T10:19:14;7.50;99.90
13174;DHT22;6652;48.802;9.190;2023-04-03T10:21:50;7.70;99.90
13174;DHT22;6652;48.802;9.190;2023-04-03T10:24:23;8.00;99.90
13174;DHT22;6652;48.802;9.190;2023-04-03T10:29:28;7.80;99.10
13174;DHT22;6652;48.802;9.190;2023-04-03T10:32:16;7.60;99.40
13174;DHT22;6652;48.802;9.190;2023-04-03T10:34:55;7.40;99.40
13174;DHT22;6652;48.802;9.190;2023-04-03T10:37:26;7.10;99.20
13174;DHT22;6652;48.802;9.190;2023-04-03T10:40:01;7.00;99.90
13174;DHT22;6652;48.802;9.190;2023-04-03T10:42:33;7.00;99.90
13174;DHT22;6652;48.802;9.190;2023-04-03T10:45:15;7.00;99.90
13174;DHT22;6652;48.802;9.190;2023-04-03T10:47:54;6.90;99.90
13174;DHT22;6652;48.802;9.190;2023-04-03T10:50:31;7.00;99.90
13174;DHT22;6652;48.802;9.190;2023-04-03T10:53:05;7.30;99.90
13174;DHT22;6652;48.802;9.190;2023-04-03T10:55:37;7.30;99.30
13174;DHT22;6652;48.802;9.190;2023-04-03T10:58:06;7.20;98.90
13174;DHT22;6652;48.802;9.190;2023-04-03T11:00:41;7.10;99.00
13174;DHT22;6652;48.802;9.190;2023-04-03T11:03:12;7.10;98.80
13174;DHT22;6652;48.802;9.190;2023-04-03T11:05:42;7.10;98.50
13174;DHT22;6652;48.802;9.190;2023-04-03T11:08:21;7.20;98.70
13174;DHT22;6652;48.802;9.190;2023-04-03T11:10:51;7.20;98.40
13174;DHT22;6652;48.802;9.190;2023-04-03T11:13:22;7.30;97.70
13174;DHT22;6652;48.802;9.190;2023-04-03T11:15:53;7.40;97.80
13174;DHT22;6652;48.802;9.190;2023-04-03T11:18:25;7.40;97.00
13174;DHT22;6652;48.802;9.190;2023-04-03T11:20:59;7.30;96.80
13174;DHT22;6652;48.802;9.190;2023-04-03T11:23:30;7.20;96.80
13174;DHT22;6652;48.802;9.190;2023-04-03T11:26:07;7.10;96.80
13174;DHT22;6652;48.802;9.190;2023-04-03T11:28:36;7.10;96.80
13174;DHT22;6652;48.802;9.190;2023-04-03T11:31:15;7.10;97.10
13174;DHT22;6652;48.802;9.190;2023-04-03T11:34:05;7.10;97.20
13174;DHT22;6652;48.802;9.190;2023-04-03T11:36:38;7.10;96.90
13174;DHT22;6652;48.802;9.190;2023-04-03T11:39:15;7.20;96.70
13174;DHT22;6652;48.802;9.190;2023-04-03T11:41:43;7.20;96.60
13174;DHT22;6652;48.802;9.190;2023-04-03T11:44:33;7.10;96.70
13174;DHT22;6652;48.802;9.190;2023-04-03T11:47:04;7.10;97.20
13174;DHT22;6652;48.802;9.190;2023-04-03T11:49:57;7.30;97.40
13174;DHT22;6652;48.802;9.190;2023-04-03T11:53:02;7.30;96.80
13174;DHT22;6652;48.802;9.190;2023-04-03T11:55:43;7.40;96.80
13174;DHT22;6652;48.802;9.190;2023-04-03T11:58:15;7.40;96.50
13174;DHT22;6652;48.802;9.190;2023-04-03T12:00:57;7.40;96.00
13174;DHT22;6652;48.802;9.190;2023-04-03T12:04:03;7.40;95.90
13174;DHT22;6652;48.802;9.190;2023-04-03T12:06:59;7.50;96.10
13174;DHT22;6652;48.802;9.190;2023-04-03T12:09:33;7.60;96.30
13174;DHT22;6652;48.802;9.190;2023-04-03T12:14:47;7.60;96.40
13174;DHT22;6652;48.802;9.190;2023-04-03T12:17:22;7.50;96.30
13174;DHT22;6652;48.802;9.190;2023-04-03T12:19:51;7.40;96.50
13174;DHT22;6652;48.802;9.190;2023-04-03T12:22:19;7.50;96.00
13174;DHT22;6652;48.802;9.190;2023-04-03T12:24:49;7.40;96.00
13174;DHT22;6652;48.802;9.190;2023-04-03T12:27:32;7.60;96.10
13174;DHT22;6652;48.802;9.190;2023-04-03T12:30:16;7.80;96.20
13174;DHT22;6652;48.802;9.190;2023-04-03T12:33:13;7.90;95.40
13174;DHT22;6652;48.802;9.190;2023-04-03T12:35:57;7.80;95.10
13174;DHT22;6652;48.802;9.190;2023-04-03T12:38:46;7.70;95.20
13174;DHT22;6652;48.802;9.190;2023-04-03T12:41:21;7.60;94.40
13174;DHT22;6652;48.802;9.190;2023-04-03T12:44:01;7.50;94.40
13174;DHT22;6652;48.802;9.190;2023-04-03T12:46:36;7.40;94.00
13174;DHT22;6652;48.802;9.190;2023-04-03T12:49:15;7.50;94.40
13174;DHT22;6652;48.802;9.190;2023-04-03T12:51:47;7.60;94.60
13174;DHT22;6652;48.802;9.190;2023-04-03T12:54:17;7.80;94.00
13174;DHT22;6652;48.802;9.190;2023-04-03T12:56:46;7.70;94.00
13174;DHT22;6652;48.802;9.190;2023-04-03T12:59:14;7.80;94.40
13174;DHT22;6652;48.802;9.190;2023-04-03T13:01:42;7.90;94.80
13174;DHT22;6652;48.802;9.190;2023-04-03T13:04:10;8.10;94.90
13174;DHT22;6652;48.802;9.190;2023-04-03T13:06:39;8.20;94.50
13174;DHT22;6652;48.802;9.190;2023-04-03T13:09:19;8.30;93.50
13174;DHT22;6652;48.802;9.190;2023-04-03T13:11:48;8.30;93.60
13174;DHT22;6652;48.802;9.190;2023-04-03T13:14:18;8.30;93.50
13174;DHT22;6652;48.802;9.190;2023-04-03T13:16:53;8.30;93.30
13174;DHT22;6652;48.802;9.190;2023-04-03T13:19:21;8.20;92.60
13174;DHT22;6652;48.802;9.190;2023-04-03T13:21:49;8.00;92.80
13174;DHT22;6652;48.802;9.190;2023-04-03T13:24:21;7.80;93.10
13174;DHT22;6652;48.802;9.190;2023-04-03T13:26:48;7.70;92.70
13174;DHT22;6652;48.802;9.190;2023-04-03T13:29:22;7.60;93.00
13174;DHT22;6652;48.802;9.190;2023-04-03T13:31:52;7.60;92.90
13174;DHT22;6652;48.802;9.190;2023-04-03T13:34:21;7.70;93.20
13174;DHT22;6652;48.802;9.190;2023-04-03T13:36:57;7.80;92.90
13174;DHT22;6652;48.802;9.190;2023-04-03T13:39:28;8.00;92.80
13174;DHT22;6652;48.802;9.190;2023-04-03T13:41:56;8.10;92.40
13174;DHT22;6652;48.802;9.190;2023-04-03T13:44:29;8.20;91.90
13174;DHT22;6652;48.802;9.190;2023-04-03T13:46:58;8.40;92.50
13174;DHT22;6652;48.802;9.190;2023-04-03T13:49:31;8.50;91.60
13174;DHT22;6652;48.802;9.190;2023-04-03T13:51:59;8.50;90.20
13174;DHT22;6652;48.802;9.190;2023-04-03T13:54:31;8.50;90.60
13174;DHT22;6652;48.802;9.190;2023-04-03T13:57:00;8.60;90.90
13174;DHT22;6652;48.802;9.190;2023-04-03T13:59:29;8.60;90.40
13174;DHT22;6652;48.802;9.190;2023-04-03T14:02:10;8.60;90.50
13174;DHT22;6652;48.802;9.190;2023-04-03T14:04:47;8.60;90.70
13174;DHT22;6652;48.802;9.190;2023-04-03T14:07:16;8.60;91.00
13174;DHT22;6652;48.802;9.190;2023-04-03T14:09:44;8.60;90.70
13174;DHT22;6652;48.802;9.190;2023-04-03T14:12:15;8.50;90.50
13174;DHT22;6652;48.802;9.190;2023-04-03T14:14:42;8.40;90.40
13174;DHT22;6652;48.802;9.190;2023-04-03T14:17:14;8.20;91.30
13174;DHT22;6652;48.802;9.190;2023-04-03T14:19:41;8.20;90.70
13174;DHT22;6652;48.802;9.190;2023-04-03T14:22:14;8.10;90.50
13174;DHT22;6652;48.802;9.190;2023-04-03T14:24:41;8.20;90.80
13174;DHT22;6652;48.802;9.190;2023-04-03T14:27:16;8.30;90.90
13174;DHT22;6652;48.802;9.190;2023-04-03T14:29:43;8.30;90.50
13174;DHT22;6652;48.802;9.190;2023-04-03T14:32:11;8.20;90.60
13174;DHT22;6652;48.802;9.190;2023-04-03T14:34:38;8.20;90.50
13174;DHT22;6652;48.802;9.190;2023-04-03T14:37:08;8.10;90.60
13174;DHT22;6652;48.802;9.190;2023-04-03T14:39:36;8.10;90.00
13174;DHT22;6652;48.802;9.190;2023-04-03T14:42:02;8.30;90.10
13174;DHT22;6652;48.802;9.190;2023-04-03T14:44:31;8.60;88.70
13174;DHT22;6652;48.802;9.190;2023-04-03T14:46:57;8.60;88.30
13174;DHT22;6652;48.802;9.190;2023-04-03T14:49:26;8.60;88.30
13174;DHT22;6652;48.802;9.190;2023-04-03T14:51:54;8.50;89.20
13174;DHT22;6652;48.802;9.190;2023-04-03T14:54:22;8.50;88.20
13174;DHT22;6652;48.802;9.190;2023-04-03T14:56:53;8.40;88.30
13174;DHT22;6652;48.802;9.190;2023-04-03T14:59:21;8.30;88.30
13174;DHT22;6652;48.802;9.190;2023-04-03T15:01:49;8.30;87.70
13174;DHT22;6652;48.802;9.190;2023-04-03T15:04:17;8.30;86.40
13174;DHT22;6652;48.802;9.190;2023-04-03T15:06:45;8.20;86.90
13174;DHT22;6652;48.802;9.190;2023-04-03T15:09:19;8.10;86.80
13174;DHT22;6652;48.802;9.190;2023-04-03T15:11:48;8.10;87.30
13174;DHT22;6652;48.802;9.190;2023-04-03T15:14:15;8.10;87.10
13174;DHT22;6652;48.802;9.190;2023-04-03T15:16:42;8.10;87.90
13174;DHT22;6652;48.802;9.190;2023-04-03T15:19:11;8.10;87.40
13174;DHT22;6652;48.802;9.190;2023-04-03T15:21:38;8.10;86.60
13174;DHT22;6652;48.802;9.190;2023-04-03T15:24:05;8.20;86.90
13174;DHT22;6652;48.802;9.190;2023-04-03T15:26:33;8.10;85.70
13174;DHT22;6652;48.802;9.190;2023-04-03T15:29:00;8.10;86.30
13174;DHT22;6652;48.802;9.190;2023-04-03T15:31:27;8.00;85.60
13174;DHT22;6652;48.802;9.190;2023-04-03T15:33:54;7.90;85.50
13174;DHT22;6652;48.802;9.190;2023-04-03T15:36:22;7.70;86.00
13174;DHT22;6652;48.802;9.190;2023-04-03T15:38:49;7.70;86.20
13174;DHT22;6652;48.802;9.190;2023-04-03T15:41:16;7.40;86.50
13174;DHT22;6652;48.802;9.190;2023-04-03T15:43:43;7.30;86.40
13174;DHT22;6652;48.802;9.190;2023-04-03T15:46:10;7.20;86.80
13174;DHT22;6652;48.802;9.190;2023-04-03T15:48:38;7.10;87.30
13174;DHT22;6652;48.802;9.190;2023-04-03T15:51:06;7.10;87.00
13174;DHT22;6652;48.802;9.190;2023-04-03T15:53:34;7.20;87.10
13174;DHT22;6652;48.802;9.190;2023-04-03T15:56:01;7.30;87.00
13174;DHT22;6652;48.802;9.190;2023-04-03T15:58:30;7.30;86.80
13174;DHT22;6652;48.802;9.190;2023-04-03T16:00:57;7.40;85.30
13174;DHT22;6652;48.802;9.190;2023-04-03T16:03:24;7.50;86.20
13174;DHT22;6652;48.802;9.190;2023-04-03T16:05:52;7.60;85.50
13174;DHT22;6652;48.802;9.190;2023-04-03T16:08:19;7.50;84.40
13174;DHT22;6652;48.802;9.190;2023-04-03T16:10:47;7.60;85.20
13174;DHT22;6652;48.802;9.190;2023-04-03T16:13:14;7.70;86.10
13174;DHT22;6652;48.802;9.190;2023-04-03T16:15:42;7.80;86.20
13174;DHT22;6652;48.802;9.190;2023-04-03T16:18:09;7.80;85.30
13174;DHT22;6652;48.802;9.190;2023-04-03T16:20:36;7.70;85.00
13174;DHT22;6652;48.802;9.190;2023-04-03T16:23:03;7.50;85.10
13174;DHT22;6652;48.802;9.190;2023-04-03T16:25:30;7.40;85.20